Time;durP1;ratioP1;P1;durP2;ratioP2;P2;SDS_P1;SDS_P2;PMS_P1;PMS_P2;Temp;Humidity;BMP_temperature;BMP_pressure;BME280_temperature;BME280_humidity;BME280_pressure;Samples;Min_cycle;Max_cycle;Signal;HPM_P1;HPM_P2
2023/09/16 00:00:41;;;;;;;7.67;4.70;;;19.20;69.70;;;;;;5089746;28;20521;-77
2023/09/16 00:03:09;;;;;;;7.20;4.00;;;19.10;69.80;;;;;;5087797;28;20553;-80
2023/09/16 00:05:38;;;;;;;8.40;4.47;;;19.10;69.90;;;;;;5083913;28;20867;-78
2023/09/16 00:08:07;;;;;;;8.20;4.50;;;19.10;69.90;;;;;;5086180;28;20901;-79
2023/09/16 00:10:36;;;;;;;6.70;3.83;;;19.10;70.00;;;;;;5084300;28;20541;-79
2023/09/16 00:13:04;;;;;;;8.23;4.60;;;19.10;70.00;;;;;;5086236;28;20464;-79
2023/09/16 00:15:34;;;;;;;7.93;4.27;;;19.10;70.00;;;;;;5084543;28;21809;-79
2023/09/16 00:18:02;;;;;;;7.20;4.47;;;19.00;70.00;;;;;;5085166;28;20465;-79
2023/09/16 00:20:32;;;;;;;7.07;4.30;;;18.90;70.00;;;;;;5086782;28;20786;-77
2023/09/16 00:23:04;;;;;;;7.80;4.40;;;18.90;70.10;;;;;;5079171;28;20497;-79
2023/09/16 00:25:32;;;;;;;9.00;4.90;;;18.80;70.10;;;;;;5085742;28;20445;-77
2023/09/16 00:28:00;;;;;;;9.97;5.33;;;18.70;70.30;;;;;;5087415;28;20515;-79
2023/09/16 00:30:28;;;;;;;8.07;5.00;;;18.70;70.40;;;;;;5086310;28;20615;-79
2023/09/16 00:33:00;;;;;;;12.93;5.00;;;18.60;70.40;;;;;;5085694;28;21234;-77
2023/09/16 00:35:28;;;;;;;8.67;5.23;;;18.60;70.50;;;;;;5084326;28;20445;-77
2023/09/16 00:37:56;;;;;;;11.27;4.90;;;18.50;70.50;;;;;;5085334;28;20448;-78
2023/09/16 00:40:25;;;;;;;8.30;4.13;;;18.50;70.60;;;;;;5087011;28;20473;-79
2023/09/16 00:42:53;;;;;;;7.40;4.43;;;18.40;70.70;;;;;;5080940;28;21000;-79
2023/09/16 00:45:22;;;;;;;8.77;4.50;;;18.40;70.90;;;;;;5084434;28;20724;-79
2023/09/16 00:47:49;;;;;;;7.23;4.57;;;18.40;71.00;;;;;;5084479;28;20463;-80
2023/09/16 00:50:20;;;;;;;9.53;5.47;;;18.40;71.10;;;;;;5099067;28;20950;-79
2023/09/16 00:52:51;;;;;;;9.27;5.83;;;18.40;71.20;;;;;;5082312;28;20825;-79
2023/09/16 00:55:19;;;;;;;10.73;6.33;;;18.40;71.30;;;;;;5084202;28;20467;-79
2023/09/16 00:57:50;;;;;;;9.30;5.53;;;18.40;71.30;;;;;;5085784;28;20568;-79
2023/09/16 01:00:19;;;;;;;8.57;4.93;;;18.50;71.40;;;;;;5099752;28;21894;-77
2023/09/16 01:02:48;;;;;;;9.47;5.40;;;18.50;71.30;;;;;;5087534;28;20480;-80
2023/09/16 01:05:20;;;;;;;8.80;5.03;;;18.50;71.30;;;;;;5087156;28;20475;-80
2023/09/16 01:07:50;;;;;;;8.00;5.30;;;18.50;71.40;;;;;;5084222;28;21004;-79
2023/09/16 01:10:20;;;;;;;12.00;5.00;;;18.50;71.40;;;;;;5096239;28;20544;-79
2023/09/16 01:12:50;;;;;;;8.90;5.23;;;18.50;71.40;;;;;;5081130;28;20517;-80
2023/09/16 01:15:20;;;;;;;8.50;5.33;;;18.40;71.40;;;;;;5081802;28;20800;-80
2023/09/16 01:17:55;;;;;;;11.27;4.87;;;18.40;71.50;;;;;;5085310;28;20457;-78
2023/09/16 01:20:25;;;;;;;7.50;4.60;;;18.40;71.60;;;;;;5098269;28;20464;-78
2023/09/16 01:22:54;;;;;;;7.73;4.63;;;18.40;71.60;;;;;;5079033;28;20878;-78
2023/09/16 01:25:27;;;;;;;6.90;4.63;;;18.40;71.40;;;;;;5084072;28;20453;-78
2023/09/16 01:27:56;;;;;;;7.90;4.73;;;18.40;71.40;;;;;;5086093;28;20496;-78
2023/09/16 01:30:28;;;;;;;7.37;4.80;;;18.30;71.40;;;;;;5085070;28;20454;-78
2023/09/16 01:33:03;;;;;;;7.50;5.00;;;18.20;71.50;;;;;;5086405;28;20452;-79
2023/09/16 01:35:37;;;;;;;8.43;5.13;;;18.20;71.50;;;;;;5064541;28;20454;-78
2023/09/16 01:38:07;;;;;;;8.60;5.47;;;18.10;71.60;;;;;;5085586;28;20444;-79
2023/09/16 01:40:37;;;;;;;8.60;5.90;;;18.10;71.70;;;;;;5067544;28;20859;-79
2023/09/16 01:43:07;;;;;;;7.77;5.00;;;18.10;71.80;;;;;;5097112;28;20476;-79
2023/09/16 01:45:42;;;;;;;7.40;4.80;;;18.00;71.80;;;;;;5084836;28;20522;-79
2023/09/16 01:48:11;;;;;;;7.63;4.90;;;18.00;71.90;;;;;;5084260;28;20444;-78
2023/09/16 01:50:39;;;;;;;11.13;4.80;;;18.00;71.90;;;;;;5086158;28;20547;-79
2023/09/16 01:53:07;;;;;;;10.40;5.30;;;18.00;72.00;;;;;;5086514;28;20448;-79
2023/09/16 01:55:38;;;;;;;8.30;4.70;;;18.00;72.10;;;;;;5070574;28;20457;-80
2023/09/16 01:58:08;;;;;;;7.57;5.17;;;18.00;72.10;;;;;;5072428;28;20464;-78
2023/09/16 02:00:36;;;;;;;9.10;4.80;;;18.00;72.10;;;;;;5065685;28;20472;-79
2023/09/16 02:03:05;;;;;;;8.33;5.00;;;17.90;72.10;;;;;;5089530;28;20456;-78
2023/09/16 02:05:33;;;;;;;8.83;5.47;;;17.90;72.20;;;;;;5070489;28;20453;-80
2023/09/16 02:08:03;;;;;;;7.73;5.27;;;17.90;72.20;;;;;;5070917;28;20455;-79
2023/09/16 02:10:31;;;;;;;9.53;5.43;;;17.90;72.20;;;;;;5070648;28;20513;-79
2023/09/16 02:13:01;;;;;;;8.27;5.17;;;17.90;72.30;;;;;;5071445;28;20464;-80
2023/09/16 02:15:29;;;;;;;7.47;4.70;;;17.80;72.30;;;;;;5068464;28;20573;-80
2023/09/16 02:17:57;;;;;;;7.90;4.40;;;17.80;72.30;;;;;;5065046;28;20452;-80
2023/09/16 02:20:25;;;;;;;7.13;4.83;;;17.80;72.30;;;;;;5073611;28;20504;-79
2023/09/16 02:22:53;;;;;;;8.87;5.27;;;17.70;72.30;;;;;;5088421;28;20473;-79
2023/09/16 02:25:22;;;;;;;8.87;5.43;;;17.70;72.30;;;;;;5087842;28;20548;-76
2023/09/16 02:27:50;;;;;;;9.50;4.93;;;17.60;72.40;;;;;;5070067;28;20933;-80
2023/09/16 02:30:22;;;;;;;7.43;5.37;;;17.60;72.50;;;;;;5089887;28;20467;-79
2023/09/16 02:32:51;;;;;;;11.33;5.40;;;17.60;72.60;;;;;;5082601;28;20464;-78
2023/09/16 02:35:19;;;;;;;9.00;5.83;;;17.60;72.60;;;;;;5070165;28;20458;-76
2023/09/16 02:37:48;;;;;;;8.87;5.20;;;17.50;72.60;;;;;;5100242;28;20464;-79
2023/09/16 02:40:17;;;;;;;8.37;5.10;;;17.50;72.60;;;;;;5100846;28;20463;-79
2023/09/16 02:42:46;;;;;;;8.60;5.17;;;17.40;72.60;;;;;;5071864;28;20475;-80
2023/09/16 02:45:14;;;;;;;9.03;4.97;;;17.40;72.80;;;;;;5102157;28;20455;-78
2023/09/16 02:47:43;;;;;;;8.47;4.73;;;17.40;72.90;;;;;;5072046;28;20762;-80
2023/09/16 02:50:11;;;;;;;9.30;5.47;;;17.40;73.00;;;;;;5094937;28;20552;-80
2023/09/16 02:52:39;;;;;;;9.20;4.90;;;17.40;73.00;;;;;;5070675;28;20467;-78
2023/09/16 02:55:08;;;;;;;11.23;5.13;;;17.40;73.00;;;;;;5071352;28;20452;-78
2023/09/16 02:57:36;;;;;;;7.90;5.30;;;17.40;73.00;;;;;;5086125;28;20488;-78
2023/09/16 03:00:07;;;;;;;8.17;5.17;;;17.40;73.00;;;;;;5068557;28;20526;-78
2023/09/16 03:02:35;;;;;;;8.07;5.57;;;17.40;73.00;;;;;;5085079;28;20548;-79
2023/09/16 03:05:06;;;;;;;9.83;5.50;;;17.40;73.10;;;;;;5070816;28;20919;-78
2023/09/16 03:07:34;;;;;;;8.57;5.20;;;17.40;73.10;;;;;;5085524;28;20510;-79
2023/09/16 03:10:02;;;;;;;9.27;5.60;;;17.40;73.00;;;;;;5087490;28;20453;-79
2023/09/16 03:12:34;;;;;;;8.70;5.17;;;17.40;73.00;;;;;;5099791;28;20471;-79
2023/09/16 03:15:02;;;;;;;8.20;5.37;;;17.30;73.10;;;;;;5068687;28;20882;-80
2023/09/16 03:17:30;;;;;;;8.70;5.37;;;17.30;73.10;;;;;;5072887;28;20659;-79
2023/09/16 03:19:58;;;;;;;8.87;5.40;;;17.30;73.20;;;;;;5067016;28;20541;-79
2023/09/16 03:22:29;;;;;;;10.30;5.57;;;17.30;73.20;;;;;;5083396;28;20473;-77
2023/09/16 03:24:58;;;;;;;8.67;5.90;;;17.30;73.30;;;;;;5065135;28;20464;-78
2023/09/16 03:27:26;;;;;;;7.30;5.10;;;17.20;73.30;;;;;;5070464;28;20970;-78
2023/09/16 03:29:55;;;;;;;9.70;5.47;;;17.20;73.30;;;;;;5068561;28;20460;-79
2023/09/16 03:32:27;;;;;;;8.67;5.30;;;17.20;73.30;;;;;;5086189;28;20546;-77
2023/09/16 03:34:55;;;;;;;8.27;5.00;;;17.20;73.30;;;;;;5104772;28;20457;-79
2023/09/16 03:37:23;;;;;;;8.80;5.60;;;17.20;73.30;;;;;;5087357;28;20547;-79
2023/09/16 03:40:00;;;;;;;10.00;5.30;;;17.20;73.40;;;;;;5084095;28;20460;-79
2023/09/16 03:42:29;;;;;;;7.33;4.67;;;17.20;73.40;;;;;;5085659;28;21028;-80
2023/09/16 03:44:56;;;;;;;8.40;5.33;;;17.20;73.30;;;;;;5085653;28;20531;-79
2023/09/16 03:47:27;;;;;;;8.63;5.47;;;17.10;73.30;;;;;;5085400;28;20510;-79
2023/09/16 03:49:55;;;;;;;7.97;5.37;;;17.10;73.40;;;;;;5085286;28;20457;-79
2023/09/16 03:52:23;;;;;;;8.33;5.20;;;17.10;73.40;;;;;;5083669;28;20503;-79
2023/09/16 03:54:52;;;;;;;9.23;5.33;;;17.10;73.40;;;;;;5101782;27;20457;-78
2023/09/16 03:57:21;;;;;;;11.30;4.90;;;17.00;73.40;;;;;;5085477;28;20503;-78
2023/09/16 03:59:50;;;;;;;7.63;5.07;;;17.00;73.40;;;;;;5086246;28;20457;-79
2023/09/16 04:02:18;;;;;;;11.33;5.67;;;16.90;73.30;;;;;;5087031;28;20523;-80
2023/09/16 04:04:47;;;;;;;10.33;5.47;;;16.90;73.50;;;;;;5087225;28;20805;-79
2023/09/16 04:07:15;;;;;;;9.87;5.67;;;16.90;73.50;;;;;;5087777;28;20502;-79
2023/09/16 04:09:43;;;;;;;8.87;5.30;;;16.80;73.60;;;;;;5104338;28;20461;-79
2023/09/16 04:12:12;;;;;;;9.70;5.20;;;16.80;73.70;;;;;;5100529;28;20477;-78
2023/09/16 04:14:41;;;;;;;8.67;5.53;;;16.80;73.70;;;;;;5082245;28;20457;-78
2023/09/16 04:17:09;;;;;;;8.50;4.93;;;16.80;73.80;;;;;;5100680;28;20504;-79
2023/09/16 04:19:40;;;;;;;7.00;4.50;;;16.80;73.80;;;;;;5083482;28;20514;-78
2023/09/16 04:22:09;;;;;;;7.37;5.37;;;16.80;73.80;;;;;;5085865;28;20477;-79
2023/09/16 04:24:37;;;;;;;8.10;5.30;;;16.80;73.70;;;;;;5082473;28;20457;-78
2023/09/16 04:27:06;;;;;;;9.10;5.90;;;16.70;73.70;;;;;;5087283;28;20460;-79
2023/09/16 04:29:34;;;;;;;9.50;5.57;;;16.70;73.80;;;;;;5084610;28;20457;-79
2023/09/16 04:32:05;;;;;;;8.53;5.63;;;16.70;73.90;;;;;;5084924;28;20877;-79
2023/09/16 04:34:33;;;;;;;10.53;6.20;;;16.70;73.80;;;;;;5084220;28;20978;-79
2023/09/16 04:37:05;;;;;;;9.53;6.10;;;16.60;73.70;;;;;;5086445;28;20465;-77
2023/09/16 04:39:34;;;;;;;9.10;5.37;;;16.50;73.80;;;;;;5086122;28;20457;-79
2023/09/16 04:42:02;;;;;;;8.53;5.27;;;16.50;73.90;;;;;;5085947;28;20485;-78
2023/09/16 04:44:30;;;;;;;7.60;5.30;;;16.50;74.00;;;;;;5100315;28;20444;-78
2023/09/16 04:46:59;;;;;;;8.17;5.70;;;16.50;74.10;;;;;;5087747;28;20444;-79
2023/09/16 04:49:31;;;;;;;8.53;5.53;;;16.50;74.00;;;;;;5095717;28;21062;-77
2023/09/16 04:51:59;;;;;;;11.30;5.83;;;16.50;74.00;;;;;;5086203;28;20456;-78
2023/09/16 04:54:28;;;;;;;8.30;5.50;;;16.50;74.10;;;;;;5087129;28;20522;-77
2023/09/16 04:56:57;;;;;;;7.97;5.40;;;16.50;74.10;;;;;;5084972;28;20545;-78
2023/09/16 04:59:25;;;;;;;10.80;5.10;;;16.50;74.10;;;;;;5084629;28;20823;-78
2023/09/16 05:01:53;;;;;;;10.33;5.73;;;16.50;74.10;;;;;;5105224;28;20480;-79
2023/09/16 05:04:21;;;;;;;10.33;5.47;;;16.50;74.20;;;;;;5103043;28;20955;-77
2023/09/16 05:06:50;;;;;;;8.40;5.20;;;16.50;74.10;;;;;;5088761;28;20483;-77
2023/09/16 05:09:21;;;;;;;8.43;5.20;;;16.50;74.10;;;;;;5098758;28;20874;-77
2023/09/16 05:11:49;;;;;;;9.97;6.00;;;16.50;74.00;;;;;;5088605;28;20550;-79
2023/09/16 05:14:17;;;;;;;9.00;6.00;;;16.50;74.00;;;;;;5088395;28;20553;-78
2023/09/16 05:16:46;;;;;;;11.23;6.07;;;16.50;74.00;;;;;;5084981;28;20461;-78
2023/09/16 05:19:14;;;;;;;12.93;6.27;;;16.50;74.20;;;;;;5084659;28;20456;-79
2023/09/16 05:21:42;;;;;;;8.50;5.00;;;16.50;74.10;;;;;;5106321;28;20468;-77
2023/09/16 05:24:14;;;;;;;8.50;6.07;;;16.50;74.10;;;;;;5085579;28;20506;-79
2023/09/16 05:26:42;;;;;;;10.50;6.07;;;16.50;74.10;;;;;;5087720;28;20512;-80
2023/09/16 05:29:10;;;;;;;8.63;5.93;;;16.50;74.00;;;;;;5107050;28;20443;-78
2023/09/16 05:31:41;;;;;;;9.40;6.23;;;16.50;74.20;;;;;;5108676;28;20548;-77
2023/09/16 05:34:10;;;;;;;8.47;6.50;;;16.50;74.00;;;;;;5091575;28;20452;-79
2023/09/16 05:36:39;;;;;;;8.83;6.30;;;16.40;74.20;;;;;;5114033;27;20451;-79
2023/09/16 05:39:07;;;;;;;11.30;6.20;;;16.40;74.30;;;;;;5093090;28;20452;-78
2023/09/16 05:41:37;;;;;;;10.47;5.57;;;16.40;74.40;;;;;;5110327;27;20863;-78
2023/09/16 05:44:06;;;;;;;10.57;6.33;;;16.40;74.50;;;;;;5109268;28;21147;-78
2023/09/16 05:46:34;;;;;;;11.87;6.00;;;16.40;74.60;;;;;;5090937;28;20453;-80
2023/09/16 05:49:07;;;;;;;10.73;6.37;;;16.50;74.60;;;;;;5111466;28;20946;-78
2023/09/16 05:51:36;;;;;;;11.30;6.07;;;16.50;74.60;;;;;;5092707;28;20452;-79
2023/09/16 05:54:05;;;;;;;8.47;5.73;;;16.50;74.60;;;;;;5091641;28;20976;-80
2023/09/16 05:56:37;;;;;;;8.80;6.37;;;16.50;74.70;;;;;;5105165;28;20491;-80
2023/09/16 05:59:06;;;;;;;9.63;5.57;;;16.60;74.80;;;;;;5090824;28;21029;-80
2023/09/16 06:01:35;;;;;;;9.93;6.60;;;16.60;74.80;;;;;;5080487;28;20480;-78
2023/09/16 06:04:04;;;;;;;10.00;6.13;;;16.70;74.80;;;;;;5072404;28;20453;-80
2023/09/16 06:06:32;;;;;;;9.80;5.93;;;16.70;74.80;;;;;;5066979;28;20980;-78
2023/09/16 06:09:03;;;;;;;9.63;6.87;;;16.60;74.90;;;;;;5071756;28;20830;-76
2023/09/16 06:11:32;;;;;;;10.97;6.40;;;16.70;75.00;;;;;;5072106;28;20456;-78
2023/09/16 06:14:00;;;;;;;11.57;6.70;;;16.70;75.00;;;;;;5070362;28;20994;-80
2023/09/16 06:16:29;;;;;;;8.57;5.93;;;16.70;75.10;;;;;;5069566;28;20453;-79
2023/09/16 06:18:58;;;;;;;10.40;6.20;;;16.80;75.20;;;;;;5110207;28;20475;-79
2023/09/16 06:21:26;;;;;;;10.13;6.70;;;16.80;75.30;;;;;;5072718;28;20994;-80
2023/09/16 06:23:54;;;;;;;12.03;7.03;;;16.90;75.40;;;;;;5100619;28;20489;-80
2023/09/16 06:26:24;;;;;;;10.70;7.03;;;16.90;75.50;;;;;;5068387;28;20464;-79
2023/09/16 06:28:52;;;;;;;10.97;7.67;;;17.00;75.60;;;;;;5104963;28;20472;-79
2023/09/16 06:31:20;;;;;;;11.83;7.30;;;17.10;75.70;;;;;;5079512;28;20555;-78
2023/09/16 06:33:52;;;;;;;10.10;7.20;;;17.10;75.90;;;;;;5072477;28;20453;-79
2023/09/16 06:36:20;;;;;;;13.20;8.17;;;17.20;75.90;;;;;;5071831;28;20480;-78
2023/09/16 06:38:50;;;;;;;11.27;7.50;;;17.20;76.00;;;;;;5089951;28;20829;-78
2023/09/16 06:41:19;;;;;;;10.63;7.77;;;17.30;76.10;;;;;;5071307;28;20471;-77
2023/09/16 06:43:47;;;;;;;15.87;8.13;;;17.30;76.30;;;;;;5066258;28;20851;-78
2023/09/16 06:46:19;;;;;;;13.00;7.50;;;17.30;76.60;;;;;;5082826;28;20514;-78
2023/09/16 06:48:48;;;;;;;11.23;7.60;;;17.40;76.70;;;;;;5091012;28;20807;-79
2023/09/16 06:51:18;;;;;;;11.47;7.60;;;17.50;76.80;;;;;;5089370;28;20465;-79
2023/09/16 06:53:46;;;;;;;10.67;8.03;;;17.60;76.90;;;;;;5088737;28;20453;-79
2023/09/16 06:56:14;;;;;;;10.80;8.17;;;17.60;77.00;;;;;;5091205;28;20460;-78
2023/09/16 06:58:42;;;;;;;11.40;7.20;;;17.70;77.00;;;;;;5091425;28;20445;-78
2023/09/16 07:01:10;;;;;;;11.00;7.80;;;17.70;77.10;;;;;;5091889;28;20469;-79
2023/09/16 07:03:38;;;;;;;13.53;7.33;;;17.80;77.10;;;;;;5091006;28;20541;-78
2023/09/16 07:06:06;;;;;;;12.77;7.33;;;17.80;77.20;;;;;;5085241;28;20461;-78
2023/09/16 07:08:36;;;;;;;9.57;6.67;;;17.80;77.30;;;;;;5088673;28;20449;-78
2023/09/16 07:11:04;;;;;;;11.20;8.20;;;17.90;77.10;;;;;;5087085;28;20452;-79
2023/09/16 07:13:32;;;;;;;12.37;7.83;;;18.00;77.10;;;;;;5087972;28;20449;-80
2023/09/16 07:16:00;;;;;;;10.23;6.57;;;18.10;77.10;;;;;;5071377;28;20533;-78
2023/09/16 07:18:28;;;;;;;10.37;7.27;;;18.10;77.10;;;;;;5087064;28;20960;-78
2023/09/16 07:20:56;;;;;;;12.30;7.10;;;18.20;77.10;;;;;;5085815;28;20463;-79
2023/09/16 07:23:24;;;;;;;9.93;7.03;;;18.30;77.00;;;;;;5089821;28;20477;-81
2023/09/16 07:25:56;;;;;;;9.73;6.90;;;18.30;77.00;;;;;;5071281;28;20559;-78
2023/09/16 07:28:27;;;;;;;10.43;7.93;;;18.40;77.00;;;;;;5088317;28;20541;-78
2023/09/16 07:30:55;;;;;;;10.63;7.13;;;18.40;76.90;;;;;;5072748;28;20560;-78
2023/09/16 07:33:23;;;;;;;14.20;6.90;;;18.50;76.90;;;;;;5087942;28;20448;-78
2023/09/16 07:35:52;;;;;;;10.20;7.50;;;18.60;76.80;;;;;;5073867;28;20536;-78
2023/09/16 07:38:20;;;;;;;13.03;7.10;;;18.60;76.80;;;;;;5092336;28;20453;-78
2023/09/16 07:40:51;;;;;;;10.50;6.93;;;18.70;76.80;;;;;;5093290;28;21269;-78
2023/09/16 07:43:21;;;;;;;11.77;7.73;;;18.80;76.80;;;;;;5084488;28;20473;-81
2023/09/16 07:45:49;;;;;;;13.33;7.50;;;18.80;76.70;;;;;;5092226;28;20488;-79
2023/09/16 07:48:18;;;;;;;12.47;7.53;;;18.90;76.70;;;;;;5091804;28;20959;-78
2023/09/16 07:50:47;;;;;;;23.67;7.13;;;19.00;76.70;;;;;;5091593;28;20463;-79
2023/09/16 07:53:15;;;;;;;9.90;7.13;;;19.00;76.70;;;;;;5089170;28;20488;-80
2023/09/16 07:55:43;;;;;;;11.60;7.50;;;19.10;76.60;;;;;;5082224;28;20537;-80
2023/09/16 07:58:11;;;;;;;10.60;7.03;;;19.20;76.50;;;;;;5083094;28;20460;-79
2023/09/16 08:00:41;;;;;;;12.07;7.50;;;19.20;76.50;;;;;;5078477;28;20469;-79
2023/09/16 08:03:09;;;;;;;10.73;7.60;;;19.30;76.50;;;;;;5084837;28;20966;-81
2023/09/16 08:05:37;;;;;;;10.17;7.63;;;19.30;76.40;;;;;;5084218;28;20549;-79
2023/09/16 08:08:05;;;;;;;11.90;6.63;;;19.40;76.40;;;;;;5083567;28;20537;-78
2023/09/16 08:10:33;;;;;;;10.63;6.70;;;19.40;76.40;;;;;;5086850;28;20460;-81
2023/09/16 08:13:01;;;;;;;10.03;6.80;;;19.50;76.40;;;;;;5082269;28;20939;-78
2023/09/16 08:15:30;;;;;;;12.20;6.90;;;19.60;76.40;;;;;;5067518;28;20461;-80
2023/09/16 08:18:00;;;;;;;10.17;6.40;;;19.70;76.40;;;;;;5079633;28;20449;-81
2023/09/16 08:20:28;;;;;;;11.30;6.87;;;19.70;76.10;;;;;;5086440;28;20459;-80
2023/09/16 08:22:56;;;;;;;9.17;6.77;;;19.80;76.00;;;;;;5087509;28;20516;-78
2023/09/16 08:25:25;;;;;;;11.53;7.60;;;19.90;76.00;;;;;;5083841;28;20461;-80
2023/09/16 08:27:53;;;;;;;12.50;6.70;;;19.90;76.00;;;;;;5083969;28;20513;-80
2023/09/16 08:30:21;;;;;;;9.30;6.73;;;19.90;75.90;;;;;;5086167;28;20453;-79
2023/09/16 08:32:49;;;;;;;12.00;8.10;;;20.00;75.90;;;;;;5085875;28;20453;-80
2023/09/16 08:35:21;;;;;;;10.03;7.13;;;20.10;75.80;;;;;;5087184;28;20961;-83
2023/09/16 08:38:00;;;;;;;14.00;7.40;;;20.10;75.80;;;;;;5086789;28;20489;-83
2023/09/16 08:40:29;;;;;;;10.27;7.33;;;20.20;75.70;;;;;;5085720;28;20476;-84
2023/09/16 08:43:08;;;;;;;12.90;8.80;;;20.30;75.60;;;;;;5088393;28;20859;-85
2023/09/16 08:45:40;;;;;;;10.30;7.23;;;20.30;75.50;;;;;;5089347;28;20854;-85
2023/09/16 08:48:15;;;;;;;20.63;6.83;;;20.30;75.40;;;;;;5087464;28;20449;-84
2023/09/16 08:50:46;;;;;;;10.80;7.33;;;20.40;75.50;;;;;;5085578;28;21181;-83
2023/09/16 08:53:16;;;;;;;10.70;6.43;;;20.40;75.30;;;;;;5087727;28;20542;-84
2023/09/16 08:55:44;;;;;;;12.30;6.50;;;20.50;75.20;;;;;;5088514;28;20468;-83
2023/09/16 08:58:14;;;;;;;13.17;6.80;;;20.50;75.10;;;;;;5087457;28;20517;-84
2023/09/16 09:00:43;;;;;;;14.80;6.83;;;20.50;75.10;;;;;;5091366;28;21005;-84
2023/09/16 09:03:11;;;;;;;9.90;6.80;;;20.60;75.10;;;;;;5087761;28;20452;-84
2023/09/16 09:05:42;;;;;;;13.80;7.73;;;20.60;74.90;;;;;;5108943;28;20505;-85
2023/09/16 09:08:12;;;;;;;13.33;6.70;;;20.70;74.90;;;;;;5089470;28;20551;-83
2023/09/16 09:10:41;;;;;;;10.87;7.20;;;20.70;75.00;;;;;;5109808;28;20479;-86
2023/09/16 09:13:13;;;;;;;10.77;7.23;;;20.80;74.90;;;;;;5109039;28;20528;-86
2023/09/16 09:15:42;;;;;;;13.60;6.43;;;20.80;74.80;;;;;;5110652;28;20930;-85
2023/09/16 09:18:12;;;;;;;9.60;6.90;;;20.80;74.90;;;;;;5089577;28;20447;-83
2023/09/16 09:20:40;;;;;;;9.77;7.10;;;20.90;74.80;;;;;;5107964;28;20819;-82
2023/09/16 09:23:09;;;;;;;12.03;6.80;;;20.90;74.80;;;;;;5108026;28;21198;-80
2023/09/16 09:25:42;;;;;;;11.20;8.27;;;21.00;74.60;;;;;;5083892;28;20461;-80
2023/09/16 09:28:10;;;;;;;14.73;7.43;;;21.00;74.60;;;;;;5106953;28;20462;-81
2023/09/16 09:30:42;;;;;;;11.40;7.67;;;21.10;74.60;;;;;;5099422;28;20487;-80
2023/09/16 09:33:14;;;;;;;10.20;6.83;;;21.10;74.60;;;;;;5102484;28;20451;-80
2023/09/16 09:35:42;;;;;;;8.90;6.00;;;21.20;74.70;;;;;;5104662;28;20572;-80
2023/09/16 09:38:11;;;;;;;11.77;6.90;;;21.20;74.60;;;;;;5088806;28;20541;-80
2023/09/16 09:40:40;;;;;;;15.30;6.30;;;21.30;74.60;;;;;;5103312;28;20771;-80
2023/09/16 09:43:08;;;;;;;13.80;7.10;;;21.30;74.40;;;;;;5106965;28;20471;-85
2023/09/16 09:45:37;;;;;;;9.90;6.60;;;21.40;74.40;;;;;;5104706;28;20996;-84
2023/09/16 09:48:06;;;;;;;14.53;10.07;;;21.50;74.40;;;;;;5090787;28;20448;-85
2023/09/16 09:50:34;;;;;;;9.87;6.77;;;21.60;74.20;;;;;;5109753;28;20448;-83
2023/09/16 09:53:03;;;;;;;10.50;6.33;;;21.60;74.00;;;;;;5110211;28;20521;-83
2023/09/16 09:55:30;;;;;;;13.80;6.40;;;21.70;73.80;;;;;;5087289;28;20834;-85
2023/09/16 09:58:01;;;;;;;10.40;6.80;;;21.70;73.70;;;;;;5103803;28;20490;-85
2023/09/16 10:00:29;;;;;;;14.53;6.67;;;21.80;73.70;;;;;;5107040;28;20502;-83
2023/09/16 10:02:59;;;;;;;9.53;6.80;;;21.90;73.70;;;;;;5108960;28;20534;-77
2023/09/16 10:05:27;;;;;;;8.90;6.20;;;21.90;73.60;;;;;;5103660;28;20988;-79
2023/09/16 10:07:55;;;;;;;11.00;6.57;;;22.00;73.50;;;;;;5098937;28;20832;-77
2023/09/16 10:10:25;;;;;;;9.23;6.33;;;22.10;73.40;;;;;;5101602;28;20492;-77
2023/09/16 10:12:55;;;;;;;8.93;6.70;;;22.10;73.20;;;;;;5103391;28;20473;-80
2023/09/16 10:15:26;;;;;;;9.40;6.60;;;22.10;73.20;;;;;;5086309;28;21057;-77
2023/09/16 10:17:56;;;;;;;10.20;6.50;;;22.20;73.10;;;;;;5102459;28;20551;-79
2023/09/16 10:20:24;;;;;;;9.40;6.60;;;22.20;73.10;;;;;;5109312;28;20452;-79
2023/09/16 10:22:53;;;;;;;10.23;7.37;;;22.30;73.10;;;;;;5109978;28;20455;-80
2023/09/16 10:25:23;;;;;;;8.87;6.73;;;22.40;72.90;;;;;;5108111;28;20501;-77
2023/09/16 10:27:56;;;;;;;9.60;6.57;;;22.40;72.70;;;;;;5110649;28;20454;-80
2023/09/16 10:30:27;;;;;;;11.47;6.40;;;22.50;72.70;;;;;;5090922;28;20889;-79
2023/09/16 10:32:55;;;;;;;11.43;6.20;;;22.50;72.60;;;;;;5109311;28;20874;-77
2023/09/16 10:35:24;;;;;;;25.97;10.93;;;22.60;72.60;;;;;;5109361;28;20856;-76
2023/09/16 10:37:53;;;;;;;17.63;8.50;;;22.70;72.50;;;;;;5092100;28;20475;-78
2023/09/16 10:40:21;;;;;;;15.77;7.57;;;22.70;72.50;;;;;;5106076;27;21200;-80
2023/09/16 10:42:51;;;;;;;10.07;6.37;;;22.80;72.20;;;;;;5109816;27;20877;-81
2023/09/16 10:45:19;;;;;;;7.40;5.30;;;22.90;72.00;;;;;;5093107;27;20490;-77
2023/09/16 10:47:50;;;;;;;9.83;6.03;;;22.90;71.90;;;;;;5109521;28;20456;-78
2023/09/16 10:50:19;;;;;;;8.43;5.90;;;22.90;71.90;;;;;;5088350;28;20448;-77
2023/09/16 10:52:50;;;;;;;11.40;6.27;;;23.00;71.90;;;;;;5110574;28;20452;-79
2023/09/16 10:55:27;;;;;;;8.03;5.90;;;23.10;71.70;;;;;;5105125;27;20464;-81
2023/09/16 10:58:01;;;;;;;9.70;5.97;;;23.20;71.40;;;;;;5109625;28;20447;-81
2023/09/16 11:00:37;;;;;;;9.73;6.13;;;23.20;71.40;;;;;;5091691;28;20820;-79
2023/09/16 11:03:12;;;;;;;8.97;6.10;;;23.20;71.20;;;;;;5088795;28;20553;-78
2023/09/16 11:05:41;;;;;;;10.50;5.93;;;23.30;71.00;;;;;;5091738;28;20476;-78
2023/09/16 11:08:09;;;;;;;14.53;6.07;;;23.30;71.00;;;;;;5088192;28;21339;-79
2023/09/16 11:10:38;;;;;;;13.60;7.03;;;23.30;70.90;;;;;;5086536;28;20469;-78
2023/09/16 11:13:07;;;;;;;10.77;6.00;;;23.40;70.90;;;;;;5089023;28;21029;-80
2023/09/16 11:15:36;;;;;;;7.57;5.53;;;23.40;70.80;;;;;;5089601;28;20549;-78
2023/09/16 11:18:08;;;;;;;10.80;5.90;;;23.50;70.60;;;;;;5088382;28;20521;-79
2023/09/16 11:20:38;;;;;;;10.10;6.17;;;23.50;70.60;;;;;;5086545;28;20457;-79
2023/09/16 11:23:08;;;;;;;9.23;5.93;;;23.60;70.40;;;;;;5091741;28;20467;-80
2023/09/16 11:25:37;;;;;;;7.63;5.60;;;23.60;70.40;;;;;;5085456;28;20476;-79
2023/09/16 11:28:08;;;;;;;10.13;5.77;;;23.70;70.30;;;;;;5089600;28;20984;-81
2023/09/16 11:30:38;;;;;;;8.20;5.00;;;23.80;70.10;;;;;;5089143;28;20468;-79
2023/09/16 11:33:27;;;;;;;8.40;6.10;;;23.80;70.00;;;;;;5086289;28;20483;-79
2023/09/16 11:36:12;;;;;;;7.17;4.97;;;23.90;69.60;;;;;;5089698;28;20467;-78
2023/09/16 11:38:54;;;;;;;10.13;5.40;;;24.00;69.50;;;;;;5085821;28;20465;-80
2023/09/16 11:41:23;;;;;;;9.47;5.97;;;24.00;69.60;;;;;;5084541;28;21434;-77
2023/09/16 11:43:51;;;;;;;10.43;5.07;;;24.10;69.50;;;;;;5086040;28;20476;-80
2023/09/16 11:46:19;;;;;;;9.90;5.50;;;24.20;69.20;;;;;;5088906;28;20912;-80
2023/09/16 11:48:50;;;;;;;8.40;4.87;;;24.20;69.10;;;;;;5106470;28;20479;-81
2023/09/16 11:51:21;;;;;;;7.67;5.10;;;24.30;69.00;;;;;;5091560;28;20457;-79
2023/09/16 11:53:50;;;;;;;10.30;5.40;;;24.30;68.80;;;;;;5088254;28;20864;-80
2023/09/16 11:56:20;;;;;;;8.60;5.57;;;24.40;68.60;;;;;;5084753;28;20916;-79
2023/09/16 11:58:54;;;;;;;10.43;4.90;;;24.40;68.50;;;;;;5088413;28;21793;-79
2023/09/16 12:01:25;;;;;;;7.90;5.00;;;24.40;68.20;;;;;;5084854;28;20475;-77
2023/09/16 12:03:55;;;;;;;9.03;4.80;;;24.50;68.10;;;;;;5085803;28;20455;-75
2023/09/16 12:06:25;;;;;;;8.27;5.27;;;24.60;68.00;;;;;;5087687;28;20489;-79
2023/09/16 12:08:55;;;;;;;7.87;4.43;;;24.70;67.90;;;;;;5069150;28;20499;-80
2023/09/16 12:11:24;;;;;;;7.40;5.27;;;24.80;67.80;;;;;;5083325;28;20456;-80
2023/09/16 12:13:54;;;;;;;7.20;4.60;;;24.80;67.50;;;;;;5087419;28;20451;-79
2023/09/16 12:16:22;;;;;;;6.90;4.80;;;24.90;67.20;;;;;;5096896;28;20460;-81
2023/09/16 12:18:51;;;;;;;9.07;5.20;;;24.90;66.90;;;;;;5087373;28;20464;-78
2023/09/16 12:21:21;;;;;;;6.20;4.00;;;24.90;66.70;;;;;;5086896;28;20472;-79
2023/09/16 12:23:52;;;;;;;6.67;4.47;;;24.90;66.50;;;;;;5084148;28;20893;-79
2023/09/16 12:26:20;;;;;;;9.70;5.20;;;25.00;66.30;;;;;;5086288;28;20491;-77
2023/09/16 12:28:48;;;;;;;8.43;5.30;;;25.00;66.20;;;;;;5089025;28;20797;-79
2023/09/16 12:31:22;;;;;;;9.20;5.00;;;25.00;66.10;;;;;;5088744;28;20468;-78
2023/09/16 12:33:54;;;;;;;9.20;4.17;;;25.10;66.00;;;;;;5088413;28;20443;-78
2023/09/16 12:36:27;;;;;;;7.57;4.77;;;25.00;66.00;;;;;;5086444;28;20509;-79
2023/09/16 12:38:59;;;;;;;7.63;4.80;;;25.10;66.10;;;;;;5084802;28;20464;-77
2023/09/16 12:41:28;;;;;;;8.13;4.70;;;25.10;65.90;;;;;;5082750;28;20460;-77
2023/09/16 12:43:58;;;;;;;7.17;4.20;;;25.20;65.70;;;;;;5085148;28;20473;-78
2023/09/16 12:46:28;;;;;;;7.10;4.27;;;25.20;65.70;;;;;;5083482;28;20496;-80
2023/09/16 12:48:57;;;;;;;12.27;5.40;;;25.20;65.50;;;;;;5085604;28;20452;-80
2023/09/16 12:51:29;;;;;;;8.40;4.43;;;25.20;65.40;;;;;;5083494;28;20468;-80
2023/09/16 12:53:59;;;;;;;8.03;5.00;;;25.20;65.30;;;;;;5082606;28;20473;-80